Time;durP1;ratioP1;P1;durP2;ratioP2;P2;SDS_P1;SDS_P2;PMS_P1;PMS_P2;Temp;Humidity;BMP_temperature;BMP_pressure;BME280_temperature;BME280_humidity;BME280_pressure;Samples;Min_cycle;Max_cycle;Signal;HPM_P1;HPM_P2
2022/03/19 00:01:49;;;;;;;62.40;33.53;;;;;;;-1.72;61.10;103342.91;1738205;82;21060;-66
2022/03/19 00:04:18;;;;;;;67.97;37.20;;;;;;;-1.70;61.32;103345.79;1727943;82;21099;-67
2022/03/19 00:06:47;;;;;;;56.95;33.48;;;;;;;-1.65;61.52;103345.45;1713133;83;21082;-67
2022/03/19 00:09:14;;;;;;;50.52;31.12;;;;;;;-1.66;61.69;103345.94;1737792;82;21784;-66
2022/03/19 00:11:44;;;;;;;54.05;32.63;;;;;;;-1.66;61.85;103336.77;1737876;82;21131;-66
2022/03/19 00:14:14;;;;;;;57.62;34.98;;;;;;;-1.66;62.03;103335.45;1727017;82;21096;-66
2022/03/19 00:16:42;;;;;;;69.12;39.70;;;;;;;-1.63;62.17;103338.81;1738468;80;21072;-67
2022/03/19 00:19:11;;;;;;;72.12;42.17;;;;;;;-1.62;62.23;103339.17;1715299;82;21040;-67
2022/03/19 00:21:40;;;;;;;67.53;40.90;;;;;;;-1.61;62.28;103335.14;1738204;82;21330;-68
2022/03/19 00:24:08;;;;;;;68.10;37.35;;;;;;;-1.58;62.29;103330.14;1729077;82;21575;-69
2022/03/19 00:26:35;;;;;;;71.22;39.65;;;;;;;-1.57;62.26;103325.28;1726194;82;21064;-69
2022/03/19 00:29:04;;;;;;;61.70;35.15;;;;;;;-1.57;62.21;103320.04;1722330;80;21091;-69
2022/03/19 00:31:32;;;;;;;56.28;32.95;;;;;;;-1.55;62.18;103320.75;1728574;82;21104;-69
2022/03/19 00:33:59;;;;;;;60.35;34.38;;;;;;;-1.56;62.13;103315.15;1712590;83;21150;-68
2022/03/19 00:36:27;;;;;;;51.13;30.72;;;;;;;-1.48;61.94;103321.98;1772184;80;21105;-69
2022/03/19 00:38:55;;;;;;;46.73;27.65;;;;;;;-1.46;61.75;103314.86;1754501;80;21010;-68
2022/03/19 00:41:22;;;;;;;44.27;24.90;;;;;;;-1.43;61.60;103313.33;1775536;80;21010;-68
2022/03/19 00:43:49;;;;;;;45.85;26.57;;;;;;;-1.45;61.50;103307.34;1754657;80;21608;-68
2022/03/19 00:46:19;;;;;;;41.33;25.25;;;;;;;-1.48;61.43;103307.56;1775704;80;21215;-68
2022/03/19 00:48:47;;;;;;;55.43;33.20;;;;;;;-1.52;61.43;103301.70;1721973;82;21161;-68
2022/03/19 00:51:14;;;;;;;55.17;32.00;;;;;;;-1.56;61.34;103299.42;1708890;83;21695;-69
2022/03/19 00:53:41;;;;;;;77.10;42.05;;;;;;;-1.64;61.09;103303.08;1707016;84;21117;-68
2022/03/19 00:56:08;;;;;;;84.40;45.98;;;;;;;-1.72;60.92;103307.05;1738005;82;21002;-67
2022/03/19 00:58:35;;;;;;;103.80;53.70;;;;;;;-1.80;60.92;103304.16;1718270;82;21245;-68
2022/03/19 01:01:04;;;;;;;90.87;48.28;;;;;;;-1.88;61.03;103301.22;1738206;82;21105;-67
2022/03/19 01:03:33;;;;;;;111.75;56.90;;;;;;;-2.00;60.96;103293.76;1708551;83;21093;-68
2022/03/19 01:06:02;;;;;;;123.60;59.55;;;;;;;-2.10;60.96;103298.44;1685852;84;21041;-68
2022/03/19 01:08:30;;;;;;;116.82;59.00;;;;;;;-2.18;60.93;103295.02;1718090;82;21639;-68
2022/03/19 01:11:00;;;;;;;135.10;65.55;;;;;;;-2.23;60.88;103295.83;1708567;83;21572;-68
2022/03/19 01:13:28;;;;;;;142.70;71.95;;;;;;;-2.30;60.83;103294.10;1724310;82;21026;-67
2022/03/19 01:15:57;;;;;;;126.60;60.43;;;;;;;-2.37;60.84;103295.44;1702542;83;21089;-68
2022/03/19 01:18:26;;;;;;;129.32;63.90;;;;;;;-2.42;60.88;103294.92;1775359;80;21078;-68
2022/03/19 01:20:53;;;;;;;129.65;63.05;;;;;;;-2.47;60.91;103295.25;1763075;80;21169;-67
2022/03/19 01:23:21;;;;;;;122.05;62.38;;;;;;;-2.50;60.98;103290.67;1774694;80;21615;-67
2022/03/19 01:25:48;;;;;;;121.55;60.03;;;;;;;-2.51;61.16;103297.69;1755512;80;21069;-67
2022/03/19 01:28:15;;;;;;;83.27;45.60;;;;;;;-2.55;61.39;103294.91;1760344;80;21103;-68
2022/03/19 01:30:43;;;;;;;76.22;42.08;;;;;;;-2.55;61.64;103302.77;1772496;80;21108;-68
2022/03/19 01:33:10;;;;;;;85.50;45.12;;;;;;;-2.55;61.90;103306.69;1775635;80;21070;-68
2022/03/19 01:35:38;;;;;;;95.30;47.75;;;;;;;-2.58;62.15;103296.90;1775233;80;21673;-68
2022/03/19 01:38:05;;;;;;;71.75;40.25;;;;;;;-2.55;62.32;103299.31;1774226;80;21058;-68
2022/03/19 01:40:33;;;;;;;60.20;34.35;;;;;;;-2.55;62.50;103301.93;1774494;80;21141;-68
2022/03/19 01:43:01;;;;;;;58.98;34.08;;;;;;;-2.54;62.69;103300.98;1775213;80;21081;-69
2022/03/19 01:45:29;;;;;;;58.60;33.20;;;;;;;-2.54;62.86;103300.98;1749692;80;21078;-67
2022/03/19 01:47:58;;;;;;;61.85;34.70;;;;;;;-2.53;62.99;103294.80;1775275;80;21800;-67
2022/03/19 01:50:26;;;;;;;63.63;35.88;;;;;;;-2.52;63.08;103292.56;1754680;80;21007;-68
2022/03/19 01:52:55;;;;;;;64.80;37.65;;;;;;;-2.52;63.20;103299.95;1761776;80;21613;-67
2022/03/19 01:55:26;;;;;;;50.60;31.12;;;;;;;-2.51;63.32;103297.69;1762268;80;20991;-68
2022/03/19 01:57:56;;;;;;;57.17;32.20;;;;;;;-2.51;63.29;103296.85;1759450;79;21636;-68
2022/03/19 02:00:24;;;;;;;58.13;32.23;;;;;;;-2.55;63.30;103298.84;1768359;80;21076;-68
2022/03/19 02:02:53;;;;;;;62.05;33.78;;;;;;;-2.60;63.33;103300.47;1756987;80;21546;-67
2022/03/19 02:05:23;;;;;;;59.33;35.08;;;;;;;-2.63;63.40;103300.67;1774644;80;21018;-67
2022/03/19 02:07:51;;;;;;;68.87;38.92;;;;;;;-2.68;63.43;103293.59;1760712;80;21069;-67
2022/03/19 02:10:22;;;;;;;61.15;34.70;;;;;;;-2.72;63.46;103296.05;1751114;80;21015;-68
2022/03/19 02:12:52;;;;;;;57.33;33.10;;;;;;;-2.79;63.51;103292.17;1748063;79;21840;-67
2022/03/19 02:15:19;;;;;;;57.27;32.78;;;;;;;-2.81;63.58;103296.65;1776032;80;20972;-67
2022/03/19 02:17:48;;;;;;;53.38;30.60;;;;;;;-2.83;63.63;103305.05;1774516;80;20960;-69
2022/03/19 02:20:16;;;;;;;50.28;30.27;;;;;;;-2.86;63.65;103296.97;1759825;80;21098;-67
2022/03/19 02:25:34;;;;;;;55.12;31.17;;;;;;;-2.92;63.71;103296.53;1756983;80;21070;-67
2022/03/19 02:28:01;;;;;;;52.55;30.90;;;;;;;-2.90;63.68;103299.87;1758711;80;21460;-68
2022/03/19 02:30:31;;;;;;;58.02;32.75;;;;;;;-2.88;63.56;103307.98;1759032;80;21035;-67
2022/03/19 02:33:00;;;;;;;50.08;28.62;;;;;;;-2.92;63.45;103310.44;1761148;79;21526;-68
2022/03/19 02:35:27;;;;;;;45.52;27.32;;;;;;;-2.93;63.44;103311.39;1762309;79;21541;-68
2022/03/19 02:37:55;;;;;;;49.70;28.38;;;;;;;-2.89;63.51;103314.64;1760434;79;21600;-68
2022/03/19 02:40:23;;;;;;;62.75;33.58;;;;;;;-2.84;63.52;103314.69;1776187;80;21031;-68
2022/03/19 02:42:54;;;;;;;54.35;31.37;;;;;;;-2.81;63.46;103313.66;1767756;80;21164;-67
2022/03/19 02:45:22;;;;;;;58.85;33.08;;;;;;;-2.76;63.37;103310.28;1762159;80;21100;-67
2022/03/19 02:47:59;;;;;;;60.95;32.98;;;;;;;-2.71;63.25;103310.80;1763152;80;21184;-67
2022/03/19 02:50:34;;;;;;;56.88;31.95;;;;;;;-2.70;63.13;103313.80;1756078;80;21340;-67
2022/03/19 02:53:06;;;;;;;62.80;34.55;;;;;;;-2.72;62.99;103303.06;1761514;80;21057;-67
2022/03/19 02:55:36;;;;;;;107.32;53.83;;;;;;;-2.75;62.87;103319.79;1763429;80;21059;-66
2022/03/19 02:58:03;;;;;;;107.47;53.00;;;;;;;-2.77;62.75;103321.66;1759420;80;21499;-68
2022/03/19 03:00:31;;;;;;;93.90;49.50;;;;;;;-2.85;62.73;103317.41;1755143;80;21153;-67
2022/03/19 03:03:00;;;;;;;109.70;53.45;;;;;;;-2.87;62.81;103317.97;1761292;79;21211;-68
2022/03/19 03:05:28;;;;;;;100.55;49.83;;;;;;;-2.85;62.86;103312.19;1758598;80;21068;-67
2022/03/19 03:07:57;;;;;;;92.85;47.70;;;;;;;-2.81;62.85;103314.13;1756615;80;20992;-68
2022/03/19 03:10:24;;;;;;;86.95;44.42;;;;;;;-2.79;62.91;103314.40;1774305;80;21034;-67
2022/03/19 03:12:52;;;;;;;95.87;46.98;;;;;;;-2.75;62.98;103310.64;1774366;80;21050;-67
2022/03/19 03:15:20;;;;;;;109.67;56.13;;;;;;;-2.75;62.89;103313.25;1759634;80;21246;-66
2022/03/19 03:17:49;;;;;;;109.10;53.70;;;;;;;-2.77;62.75;103318.21;1758827;80;21074;-67
2022/03/19 03:20:18;;;;;;;119.13;57.48;;;;;;;-2.82;62.68;103318.52;1773269;79;21510;-66
2022/03/19 03:22:46;;;;;;;120.37;59.05;;;;;;;-2.84;62.56;103317.77;1750215;80;21641;-66
2022/03/19 03:25:15;;;;;;;118.75;56.92;;;;;;;-2.84;62.43;103323.01;1766051;80;21023;-67
2022/03/19 03:27:43;;;;;;;110.60;54.38;;;;;;;-2.85;62.24;103323.95;1763522;80;21245;-67
2022/03/19 03:30:10;;;;;;;109.05;55.23;;;;;;;-2.89;62.06;103330.33;1766392;81;20984;-68
2022/03/19 03:32:40;;;;;;;110.22;54.63;;;;;;;-2.93;61.90;103327.08;1765975;80;21035;-67
2022/03/19 03:35:08;;;;;;;101.58;51.28;;;;;;;-3.02;61.72;103334.21;1760742;80;21015;-66
2022/03/19 03:37:37;;;;;;;108.83;51.65;;;;;;;-3.11;61.63;103338.72;1757267;80;21027;-66
2022/03/19 03:40:07;;;;;;;98.60;50.50;;;;;;;-3.16;61.57;103339.02;1760920;80;21198;-66
2022/03/19 03:42:44;;;;;;;102.53;50.10;;;;;;;-3.23;61.42;103347.34;1759284;80;21042;-67
2022/03/19 03:45:14;;;;;;;103.62;50.40;;;;;;;-3.34;61.34;103347.55;1764872;79;21479;-66
2022/03/19 03:47:41;;;;;;;102.47;51.30;;;;;;;-3.41;61.32;103344.13;1765913;79;21042;-66
2022/03/19 03:50:10;;;;;;;100.47;49.93;;;;;;;-3.46;61.31;103347.01;1750704;80;21059;-67
2022/03/19 03:52:39;;;;;;;130.20;58.80;;;;;;;-3.54;61.32;103346.66;1758375;80;21003;-68
2022/03/19 03:55:08;;;;;;;115.47;56.60;;;;;;;-3.57;61.43;103345.07;1762747;80;21038;-67
2022/03/19 03:57:36;;;;;;;123.13;59.85;;;;;;;-3.57;61.52;103337.23;1756309;80;21074;-68
2022/03/19 04:00:08;;;;;;;116.33;57.10;;;;;;;-3.56;61.60;103341.98;1756014;80;21079;-67
2022/03/19 04:02:43;;;;;;;108.95;52.17;;;;;;;-3.56;61.67;103341.52;1758885;80;20948;-66
2022/03/19 04:05:11;;;;;;;101.67;51.18;;;;;;;-3.54;61.69;103340.12;1756465;80;21094;-66
2022/03/19 04:07:39;;;;;;;90.62;44.48;;;;;;;-3.54;61.63;103339.66;1761143;80;20903;-67
2022/03/19 04:10:12;;;;;;;94.55;46.98;;;;;;;-3.58;61.57;103335.56;1759869;80;21673;-66
2022/03/19 04:12:40;;;;;;;60.48;33.15;;;;;;;-3.62;61.64;103340.62;1759208;80;21117;-68
2022/03/19 04:15:10;;;;;;;61.20;33.63;;;;;;;-3.68;61.77;103345.38;1762405;80;21014;-67
2022/03/19 04:17:37;;;;;;;73.57;38.28;;;;;;;-3.67;62.05;103347.05;1756770;80;21539;-67
2022/03/19 04:20:07;;;;;;;67.05;36.75;;;;;;;-3.62;62.27;103343.23;1760059;80;21018;-67
2022/03/19 04:22:44;;;;;;;64.70;34.55;;;;;;;-3.56;62.50;103346.74;1762818;80;21105;-67
2022/03/19 04:25:19;;;;;;;64.72;33.53;;;;;;;-3.49;62.66;103347.20;1776243;80;21120;-67
2022/03/19 04:27:50;;;;;;;58.10;32.83;;;;;;;-3.43;62.80;103345.98;1766091;80;20999;-66
2022/03/19 04:30:18;;;;;;;58.68;30.88;;;;;;;-3.36;62.95;103351.19;1758732;80;21127;-67
2022/03/19 04:32:50;;;;;;;61.55;35.13;;;;;;;-3.32;63.04;103348.78;1762715;80;21029;-67
2022/03/19 04:38:09;;;;;;;60.90;30.95;;;;;;;-3.28;63.00;103351.56;1755620;80;21498;-66
2022/03/19 04:40:38;;;;;;;58.68;31.20;;;;;;;-3.24;63.09;103346.50;1759472;80;21513;-68
2022/03/19 04:43:07;;;;;;;55.98;31.25;;;;;;;-3.18;63.16;103342.19;1761479;80;21222;-67
2022/03/19 04:45:37;;;;;;;55.35;29.63;;;;;;;-3.12;63.16;103347.03;1760212;80;21074;-67
2022/03/19 04:48:05;;;;;;;51.95;30.02;;;;;;;-3.16;63.21;103350.79;1741196;80;21018;-67
2022/03/19 04:50:38;;;;;;;59.27;32.73;;;;;;;-3.11;63.37;103346.56;1761118;80;21170;-67
2022/03/19 04:53:06;;;;;;;65.03;34.80;;;;;;;-3.08;63.36;103349.81;1719953;80;25145;-67
2022/03/19 04:55:37;;;;;;;62.48;34.33;;;;;;;-3.02;63.44;103351.20;1718684;82;21126;-66
2022/03/19 04:58:08;;;;;;;66.77;35.13;;;;;;;-3.03;63.26;103348.20;1721916;82;21039;-67
2022/03/19 05:00:37;;;;;;;65.90;36.53;;;;;;;-3.08;63.27;103350.29;1719342;82;21108;-66
2022/03/19 05:03:09;;;;;;;62.60;35.15;;;;;;;-3.15;63.37;103352.45;1719946;82;21159;-67
2022/03/19 05:05:40;;;;;;;72.92;37.35;;;;;;;-3.16;63.53;103357.33;1759726;79;20980;-67
2022/03/19 05:08:09;;;;;;;79.35;39.55;;;;;;;-3.16;63.68;103357.77;1763208;80;21525;-66
2022/03/19 05:13:23;;;;;;;69.55;39.03;;;;;;;-3.13;64.01;103352.34;1776953;79;21026;-68
2022/03/19 05:15:50;;;;;;;81.60;41.30;;;;;;;-3.02;64.13;103359.52;1775403;79;21491;-71
2022/03/19 05:18:19;;;;;;;83.52;44.65;;;;;;;-2.93;64.18;103365.00;1757870;80;20983;-68
2022/03/19 05:20:49;;;;;;;75.57;41.98;;;;;;;-2.80;64.24;103369.41;1758477;80;21040;-68
2022/03/19 05:23:20;;;;;;;73.52;39.90;;;;;;;-2.63;64.26;103367.39;1759357;80;21083;-67
2022/03/19 05:25:49;;;;;;;89.22;47.23;;;;;;;-2.45;64.25;103369.72;1761303;80;21028;-68
2022/03/19 05:28:18;;;;;;;89.47;46.33;;;;;;;-2.22;64.08;103370.80;1759444;80;20999;-68
2022/03/19 05:30:47;;;;;;;95.17;46.53;;;;;;;-2.03;63.97;103372.55;1758595;80;21587;-68
2022/03/19 05:33:16;;;;;;;69.65;40.03;;;;;;;-1.86;63.80;103383.17;1760152;80;21027;-67
2022/03/19 05:35:45;;;;;;;87.82;45.20;;;;;;;-1.70;63.59;103373.78;1757833;80;21531;-67
2022/03/19 05:38:13;;;;;;;85.55;43.35;;;;;;;-1.62;63.24;103376.69;1762921;80;21133;-67
2022/03/19 05:40:42;;;;;;;74.77;40.35;;;;;;;-1.45;63.17;103385.55;1763563;80;21070;-67
2022/03/19 05:43:09;;;;;;;85.50;44.53;;;;;;;-1.30;63.01;103376.22;1757932;80;21181;-68
2022/03/19 05:45:36;;;;;;;83.10;45.00;;;;;;;-1.16;62.65;103376.05;1760265;80;21066;-66
2022/03/19 05:48:05;;;;;;;88.10;47.13;;;;;;;-1.05;62.47;103377.93;1761668;80;21031;-67
2022/03/19 05:50:36;;;;;;;83.75;45.17;;;;;;;-0.89;62.36;103375.00;1755286;80;21065;-68
2022/03/19 05:53:04;;;;;;;91.22;46.53;;;;;;;-0.72;62.20;103375.94;1764085;80;21034;-67
2022/03/19 05:55:32;;;;;;;115.80;57.00;;;;;;;-0.54;62.03;103373.24;1765366;79;21047;-66
2022/03/19 05:58:00;;;;;;;129.80;61.58;;;;;;;-0.40;61.77;103377.45;1762721;80;21027;-68
2022/03/19 06:00:28;;;;;;;146.32;70.35;;;;;;;-0.26;61.56;103370.70;1757414;80;21110;-67
2022/03/19 06:02:56;;;;;;;172.35;79.35;;;;;;;-0.10;61.20;103373.02;1758267;80;21007;-67
2022/03/19 06:05:24;;;;;;;166.30;75.85;;;;;;;0.08;60.77;103375.17;1757882;80;21058;-67
2022/03/19 06:07:54;;;;;;;178.38;77.80;;;;;;;0.23;60.10;103373.52;1757500;80;20987;-67
2022/03/19 06:10:23;;;;;;;208.35;89.97;;;;;;;0.41;59.65;103371.70;1766734;80;21011;-69
2022/03/19 06:12:52;;;;;;;219.68;96.10;;;;;;;0.53;59.08;103373.83;1776843;80;21392;-68
2022/03/19 06:15:21;;;;;;;211.12;95.72;;;;;;;0.69;58.43;103382.18;1771230;80;21526;-68
2022/03/19 06:17:48;;;;;;;245.40;107.60;;;;;;;0.80;57.58;103374.77;1755280;80;21034;-66
2022/03/19 06:20:22;;;;;;;262.70;112.25;;;;;;;0.86;56.75;103380.86;1758009;80;21051;-67
2022/03/19 06:22:47;;;;;;;273.73;114.37;;;;;;;1.00;55.41;103379.74;1759738;80;21245;-68
2022/03/19 06:25:15;;;;;;;256.95;110.17;;;;;;;1.00;55.41;103379.74;1755442;80;21047;-68
2022/03/19 06:27:43;;;;;;;261.25;109.17;;;;;;;1.07;55.05;103376.48;1756299;80;21062;-67
2022/03/19 06:30:14;;;;;;;247.45;106.45;;;;;;;1.20;54.76;103379.44;1758038;80;22375;-66
2022/03/19 06:32:41;;;;;;;258.93;112.52;;;;;;;1.30;54.55;103382.50;1766139;80;21030;-68
2022/03/19 06:35:10;;;;;;;253.70;107.80;;;;;;;1.39;54.11;103382.23;1762556;80;21225;-66
2022/03/19 06:37:37;;;;;;;273.82;114.90;;;;;;;1.50;53.50;103383.48;1760224;79;20928;-68
2022/03/19 06:40:07;;;;;;;251.42;109.35;;;;;;;1.54;53.05;103382.25;1759076;80;21117;-67
2022/03/19 06:42:34;;;;;;;240.68;104.15;;;;;;;1.61;52.66;103383.44;1763177;80;21132;-68
2022/03/19 06:45:02;;;;;;;243.37;106.07;;;;;;;1.66;52.21;103376.95;1758258;80;21034;-66
2022/03/19 06:47:30;;;;;;;230.10;97.55;;;;;;;1.71;51.68;103379.55;1758114;80;21155;-67
2022/03/19 06:50:00;;;;;;;216.95;92.22;;;;;;;1.74;51.15;103375.31;1762264;80;21081;-66
2022/03/19 06:52:28;;;;;;;222.60;96.15;;;;;;;1.78;50.59;103368.84;1757506;80;20999;-67
2022/03/19 06:54:56;;;;;;;220.80;96.37;;;;;;;1.83;50.24;103376.35;1760040;80;21536;-67
2022/03/19 06:57:23;;;;;;;235.15;101.60;;;;;;;1.92;50.17;103380.85;1760892;80;21495;-67
2022/03/19 06:59:51;;;;;;;210.95;92.25;;;;;;;2.01;50.34;103382.71;1758414;80;21419;-67
2022/03/19 07:02:19;;;;;;;196.57;89.15;;;;;;;2.17;50.29;103381.38;1757428;80;20987;-68
2022/03/19 07:04:46;;;;;;;201.35;89.52;;;;;;;2.31;49.53;103392.42;1759292;80;21533;-69
2022/03/19 07:07:13;;;;;;;203.92;92.62;;;;;;;2.40;49.17;103389.94;1761027;80;21008;-67
2022/03/19 07:09:40;;;;;;;186.70;84.85;;;;;;;2.48;49.32;103384.36;1763315;80;21026;-67
2022/03/19 07:12:11;;;;;;;179.93;79.60;;;;;;;2.59;49.19;103386.05;1777013;80;21565;-68
2022/03/19 07:14:38;;;;;;;169.80;76.85;;;;;;;2.66;48.84;103387.67;1768953;80;21515;-68
2022/03/19 07:17:08;;;;;;;164.50;77.03;;;;;;;2.72;48.15;103376.58;1775761;80;21077;-68
2022/03/19 07:19:36;;;;;;;164.95;76.22;;;;;;;2.81;48.09;103379.23;1745983;82;21046;-68
2022/03/19 07:22:03;;;;;;;139.92;67.08;;;;;;;2.87;47.55;103371.27;1749517;80;20963;-67
2022/03/19 07:24:31;;;;;;;143.82;64.97;;;;;;;2.95;46.85;103372.72;1777130;80;21231;-68
2022/03/19 07:26:59;;;;;;;144.55;65.87;;;;;;;3.08;45.99;103371.63;1777715;80;20976;-68
2022/03/19 07:29:26;;;;;;;133.18;61.95;;;;;;;3.17;45.69;103365.53;1777411;80;21022;-68
2022/03/19 07:31:54;;;;;;;129.70;59.53;;;;;;;3.27;45.02;103363.72;1777182;80;21144;-68
2022/03/19 07:34:24;;;;;;;100.30;48.02;;;;;;;3.35;44.33;103366.48;1777613;80;21058;-69
2022/03/19 07:36:52;;;;;;;108.55;51.68;;;;;;;3.45;43.78;103363.34;1766912;80;22044;-68
2022/03/19 07:39:20;;;;;;;114.20;51.07;;;;;;;3.58;43.62;103365.69;1614913;80;10000413;-69
2022/03/19 07:41:48;;;;;;;78.52;39.73;;;;;;;3.69;43.08;103361.59;1731259;82;20973;-69
2022/03/19 07:44:16;;;;;;;85.87;39.25;;;;;;;3.79;41.63;103360.74;1726505;82;21061;-70
2022/03/19 07:46:44;;;;;;;80.75;40.78;;;;;;;3.87;41.10;103361.67;1696690;83;21515;-69
2022/03/19 07:49:11;;;;;;;80.72;39.92;;;;;;;3.93;40.66;103362.92;1702465;84;21541;-68
2022/03/19 07:51:40;;;;;;;84.10;39.38;;;;;;;3.97;39.81;103362.97;1781842;79;21065;-69
2022/03/19 07:54:07;;;;;;;55.25;30.15;;;;;;;4.00;39.83;103357.39;1773384;80;21675;-69
2022/03/19 07:56:35;;;;;;;57.58;28.65;;;;;;;4.03;39.12;103354.46;1761950;80;21093;-69
2022/03/19 07:59:04;;;;;;;56.65;28.80;;;;;;;4.04;38.56;103360.09;1751386;80;21900;-68
2022/03/19 08:01:32;;;;;;;48.20;23.45;;;;;;;4.05;38.62;103361.77;1775749;80;21090;-69
2022/03/19 08:03:59;;;;;;;49.25;25.65;;;;;;;4.07;38.15;103355.00;1774942;80;21054;-69
2022/03/19 08:06:28;;;;;;;39.88;21.23;;;;;;;4.11;38.13;103358.52;1775831;80;21443;-69
2022/03/19 08:08:58;;;;;;;41.15;21.12;;;;;;;4.15;37.85;103351.16;1774290;80;21042;-68
2022/03/19 08:11:26;;;;;;;34.53;19.17;;;;;;;4.25;37.88;103349.80;1775299;80;21253;-68
2022/03/19 08:13:53;;;;;;;31.65;17.62;;;;;;;4.38;37.46;103343.17;1775370;80;21035;-69
2022/03/19 08:16:22;;;;;;;30.10;15.65;;;;;;;4.53;36.89;103349.29;1775395;80;21066;-68
2022/03/19 08:18:49;;;;;;;25.12;14.23;;;;;;;4.68;36.09;103339.88;1775523;79;21035;-69
2022/03/19 08:21:18;;;;;;;20.82;11.73;;;;;;;4.87;35.50;103334.45;1768121;80;21579;-68
2022/03/19 08:23:48;;;;;;;20.95;11.55;;;;;;;5.09;34.34;103334.95;1757911;80;22363;-68
2022/03/19 08:26:16;;;;;;;20.27;11.33;;;;;;;5.27;33.42;103329.66;1767372;80;21082;-68
2022/03/19 08:28:44;;;;;;;16.55;10.48;;;;;;;5.40;32.77;103329.59;1740763;80;21133;-68
2022/03/19 08:31:13;;;;;;;18.35;10.78;;;;;;;5.57;32.69;103335.02;1775499;80;21026;-69
2022/03/19 08:33:40;;;;;;;21.85;10.80;;;;;;;5.79;32.81;103329.66;1774243;79;21029;-68
2022/03/19 08:36:07;;;;;;;11.20;7.05;;;;;;;6.01;32.80;103329.16;1775360;80;21278;-68
2022/03/19 08:41:22;;;;;;;7.28;5.10;;;;;;;6.32;29.44;103319.36;1775934;80;21014;-68
2022/03/19 08:43:49;;;;;;;9.15;5.87;;;;;;;6.38;28.99;103316.03;1766314;80;21015;-68
2022/03/19 08:46:16;;;;;;;11.00;6.97;;;;;;;6.39;27.82;103319.05;1776100;80;21047;-68
2022/03/19 08:48:45;;;;;;;9.20;6.20;;;;;;;6.39;28.57;103312.91;1755792;80;21229;-67
2022/03/19 08:53:59;;;;;;;9.50;5.75;;;;;;;6.57;27.97;103316.26;1775208;80;21543;-69
2022/03/19 08:56:26;;;;;;;9.75;5.72;;;;;;;6.63;26.39;103324.08;1756494;80;21073;-69
2022/03/19 08:58:54;;;;;;;9.63;6.08;;;;;;;6.56;26.49;103323.90;1770903;79;21371;-68
2022/03/19 09:01:21;;;;;;;8.65;5.35;;;;;;;6.53;27.03;103316.25;1774294;80;21115;-69
2022/03/19 09:03:48;;;;;;;10.85;6.95;;;;;;;6.63;27.04;103316.11;1775112;80;21152;-68
2022/03/19 09:06:17;;;;;;;11.25;6.90;;;;;;;6.71;26.19;103320.95;1775355;80;33461;-68
2022/03/19 09:08:45;;;;;;;9.33;6.20;;;;;;;6.72;26.23;103321.78;1775252;80;21522;-68
2022/03/19 09:11:12;;;;;;;11.55;7.15;;;;;;;6.76;25.96;103320.45;1775590;80;21026;-67
2022/03/19 09:13:41;;;;;;;11.28;7.15;;;;;;;6.77;25.74;103312.81;1775610;80;21569;-68
2022/03/19 09:16:11;;;;;;;14.58;8.68;;;;;;;6.75;24.71;103313.48;1765547;80;21503;-68
2022/03/19 09:18:38;;;;;;;14.78;8.80;;;;;;;6.73;24.77;103316.29;1766651;80;21047;-68
2022/03/19 09:21:07;;;;;;;12.88;8.78;;;;;;;6.72;25.04;103308.00;1775087;80;21114;-69
2022/03/19 09:23:35;;;;;;;16.75;9.25;;;;;;;6.70;24.57;103315.29;1773042;80;22144;-68
2022/03/19 09:26:02;;;;;;;14.85;9.00;;;;;;;6.68;24.80;103308.00;1761245;80;21168;-67
2022/03/19 09:28:31;;;;;;;13.98;8.95;;;;;;;6.67;24.37;103306.31;1762918;79;21035;-68
2022/03/19 09:30:59;;;;;;;14.07;7.87;;;;;;;6.59;24.95;103314.28;1775590;80;20995;-68
2022/03/19 09:33:26;;;;;;;12.98;8.20;;;;;;;6.59;25.33;103314.28;1775306;79;21046;-67
2022/03/19 09:35:53;;;;;;;12.45;8.40;;;;;;;6.66;25.78;103311.81;1751799;80;21034;-69
2022/03/19 09:38:22;;;;;;;12.63;7.85;;;;;;;6.83;25.26;103312.16;1775373;80;21225;-68
2022/03/19 09:40:50;;;;;;;13.50;8.65;;;;;;;6.96;24.54;103313.00;1775349;80;21097;-68
2022/03/19 09:43:17;;;;;;;13.18;8.30;;;;;;;7.05;24.35;103309.36;1775794;80;21504;-68
2022/03/19 09:45:44;;;;;;;12.35;7.62;;;;;;;7.13;24.34;103309.34;1775100;80;21055;-69
2022/03/19 09:48:12;;;;;;;13.43;8.98;;;;;;;7.21;24.59;103298.73;1740952;82;21030;-69
2022/03/19 09:50:39;;;;;;;15.05;8.33;;;;;;;7.24;24.22;103301.05;1765994;80;21918;-68
2022/03/19 09:53:07;;;;;;;12.43;8.60;;;;;;;7.25;24.45;103297.39;1775055;80;21118;-69
2022/03/19 09:55:38;;;;;;;11.80;7.42;;;;;;;7.26;24.52;103299.04;1775238;80;21077;-68
2022/03/19 09:58:05;;;;;;;11.53;7.75;;;;;;;7.30;24.36;103294.22;1748135;82;21376;-68
2022/03/19 10:00:33;;;;;;;12.85;7.83;;;;;;;7.32;24.56;103289.57;1766365;80;21074;-68
2022/03/19 10:03:06;;;;;;;16.80;8.70;;;;;;;7.34;23.49;103286.73;1775043;80;21764;-68
2022/03/19 10:08:36;;;;;;;13.13;8.28;;;;;;;7.18;23.18;103284.44;1759633;80;21465;-68
2022/03/19 10:11:10;;;;;;;12.75;8.45;;;;;;;7.19;23.54;103279.45;1767384;79;21054;-68
2022/03/19 10:13:45;;;;;;;13.15;9.03;;;;;;;7.23;23.70;103278.11;1767261;80;21062;-68
2022/03/19 10:16:25;;;;;;;12.65;7.78;;;;;;;7.35;23.39;103283.09;1740483;80;21912;-68
2022/03/19 10:19:03;;;;;;;10.53;7.05;;;;;;;7.49;23.50;103270.42;1765212;80;21030;-68
2022/03/19 10:21:37;;;;;;;11.12;7.08;;;;;;;7.55;22.68;103271.59;1775291;80;21041;-68
2022/03/19 10:24:08;;;;;;;10.82;7.17;;;;;;;7.55;23.21;103273.74;1775774;80;21010;-67
2022/03/19 10:26:40;;;;;;;12.80;7.85;;;;;;;7.63;23.41;103270.22;1762747;80;21024;-69
2022/03/19 10:29:11;;;;;;;12.58;7.30;;;;;;;7.68;22.75;103263.91;1774311;79;21283;-68
2022/03/19 10:31:46;;;;;;;11.73;7.50;;;;;;;7.64;23.09;103267.91;1775810;80;21030;-67
2022/03/19 10:34:14;;;;;;;12.28;6.97;;;;;;;7.65;22.59;103273.55;1775441;79;21039;-68
2022/03/19 10:36:43;;;;;;;11.33;6.85;;;;;;;7.63;23.31;103264.91;1775581;80;21074;-68
2022/03/19 10:39:24;;;;;;;10.35;7.17;;;;;;;7.67;22.87;103263.58;1775351;80;21089;-69
2022/03/19 10:41:55;;;;;;;10.23;6.62;;;;;;;7.67;22.73;103267.06;1773081;80;27018;-68
2022/03/19 10:44:27;;;;;;;11.55;7.08;;;;;;;7.66;23.09;103260.06;1708197;83;21057;-68
2022/03/19 10:47:02;;;;;;;9.98;6.95;;;;;;;7.75;22.46;103263.54;1708822;83;21065;-68
2022/03/19 10:49:31;;;;;;;11.40;6.72;;;;;;;7.70;21.53;103252.57;1738273;82;21088;-67
2022/03/19 10:52:02;;;;;;;9.95;6.40;;;;;;;7.65;21.86;103250.44;1731875;82;21078;-68
2022/03/19 10:54:30;;;;;;;9.50;6.22;;;;;;;7.66;22.01;103249.93;1710785;82;21204;-68
2022/03/19 10:56:57;;;;;;;11.43;7.58;;;;;;;7.63;21.94;103252.42;1682927;84;21622;-67
2022/03/19 10:59:24;;;;;;;11.33;7.40;;;;;;;7.64;21.49;103243.47;1732337;82;21142;-69
2022/03/19 11:01:52;;;;;;;10.85;7.53;;;;;;;7.69;21.99;103245.59;1738230;82;21076;-67
2022/03/19 11:04:21;;;;;;;12.70;7.45;;;;;;;7.82;22.05;103245.88;1689011;82;21234;-67
2022/03/19 11:06:53;;;;;;;11.63;7.55;;;;;;;7.95;21.36;103242.16;1738259;82;21181;-68
2022/03/19 11:09:22;;;;;;;10.78;7.03;;;;;;;7.96;21.20;103242.52;1738560;82;21147;-67
2022/03/19 11:12:01;;;;;;;10.13;6.53;;;;;;;8.01;21.02;103235.33;1739431;82;21441;-68
2022/03/19 11:14:30;;;;;;;11.12;7.15;;;;;;;8.00;20.70;103236.34;1717708;82;21120;-68
2022/03/19 11:17:27;;;;;;;10.93;7.17;;;;;;;7.95;20.98;103226.70;1738854;82;21166;-68
2022/03/19 11:19:52;;;;;;;11.18;7.10;;;;;;;7.97;20.89;103231.36;1740590;82;21579;-69
2022/03/19 11:22:19;;;;;;;11.08;7.20;;;;;;;7.97;21.36;103231.36;1738327;82;21079;-68
2022/03/19 11:25:30;;;;;;;9.53;6.75;;;;;;;8.06;20.98;103221.01;1730869;82;21535;-69
2022/03/19 11:28:07;;;;;;;10.28;6.67;;;;;;;8.08;19.99;103223.48;1738173;82;21064;-68
2022/03/19 11:30:38;;;;;;;10.50;6.50;;;;;;;7.96;20.56;103234.53;1719057;82;21108;-67
2022/03/19 11:33:21;;;;;;;9.45;6.53;;;;;;;7.94;20.69;103222.39;1732449;82;22376;-67
2022/03/19 11:36:04;;;;;;;10.43;6.60;;;;;;;7.87;20.43;103223.59;1738341;82;21040;-68
2022/03/19 11:38:35;;;;;;;11.00;7.00;;;;;;;7.87;21.36;103218.27;1754757;80;20999;-67